createdAt,value
2023-04-18T00:02:01.642Z,98983.63
2023-04-18T00:04:29.985Z,98983.72
2023-04-18T00:06:58.074Z,98989.69
2023-04-18T00:09:26.432Z,98983.34
2023-04-18T00:11:54.513Z,98982.25
2023-04-18T00:14:23.153Z,98954.91
2023-04-18T00:16:51.678Z,98984.44
2023-04-18T00:19:21.614Z,98983.53
2023-04-18T00:21:49.747Z,98985.41
2023-04-18T00:24:17.827Z,98977.22
2023-04-18T00:26:45.989Z,98979.78
2023-04-18T00:29:14.119Z,98976.44
2023-04-18T00:31:42.217Z,98973.13
2023-04-18T00:34:10.669Z,98975.34
2023-04-18T00:36:40.136Z,98973.06
2023-04-18T00:39:08.169Z,98970.19
2023-04-18T00:41:36.359Z,98971.75
2023-04-18T00:44:04.975Z,98965.44
2023-04-18T00:46:33.134Z,98963.72
2023-04-18T00:49:01.272Z,98969.97
2023-04-18T00:51:32.061Z,98968.03
2023-04-18T00:54:01.765Z,98970.44
2023-04-18T00:56:30.634Z,98973.81
2023-04-18T00:58:59.407Z,98976.63
2023-04-18T01:01:27.492Z,98921.66
2023-04-18T01:03:55.725Z,98967.88
2023-04-18T01:06:24.496Z,98968.06
2023-04-18T01:08:53.952Z,98964.69
2023-04-18T01:11:23.473Z,98962.22
2023-04-18T01:14:01.437Z,98956.00
2023-04-18T01:16:29.971Z,98954.97
2023-04-18T01:18:58.083Z,98951.66
2023-04-18T01:21:26.854Z,98944.13
2023-04-18T01:23:54.916Z,98942.72
2023-04-18T01:26:24.367Z,98939.34
2023-04-18T01:28:52.471Z,98944.72
2023-04-18T01:31:21.434Z,98939.00
2023-04-18T01:33:49.501Z,98934.84
2023-04-18T01:36:17.541Z,98930.75
2023-04-18T01:38:45.586Z,98929.69
2023-04-18T01:41:13.823Z,98925.13
2023-04-18T01:43:45.066Z,98920.19
2023-04-18T01:46:13.102Z,98915.97
2023-04-18T01:48:41.171Z,98913.03
2023-04-18T01:51:09.471Z,98918.66
2023-04-18T01:53:39.532Z,98917.06
2023-04-18T01:56:07.742Z,98910.16
2023-04-18T01:58:36.223Z,98909.38
2023-04-18T02:01:05.934Z,98916.97
2023-04-18T02:03:34.350Z,98914.84
2023-04-18T02:06:02.891Z,98909.28
2023-04-18T02:08:33.067Z,98908.66
2023-04-18T02:11:01.389Z,98913.88
2023-04-18T02:13:29.764Z,98906.84
2023-04-18T02:15:59.056Z,98917.75
2023-04-18T02:18:28.691Z,98917.47
2023-04-18T02:20:56.716Z,98916.91
2023-04-18T02:23:24.766Z,98916.66
2023-04-18T02:25:53.469Z,98917.16
2023-04-18T02:28:24.040Z,98917.34
2023-04-18T02:30:52.127Z,98916.66
2023-04-18T02:33:20.155Z,98914.34
2023-04-18T02:35:49.488Z,98909.03
2023-04-18T02:38:17.574Z,98918.38
2023-04-18T02:40:45.727Z,98912.75
2023-04-18T02:43:13.816Z,98923.09
2023-04-18T02:45:41.981Z,98915.81
2023-04-18T02:48:10.940Z,98913.31
2023-04-18T02:50:39.142Z,98911.91
2023-04-18T02:53:08.579Z,98908.78
2023-04-18T02:55:51.675Z,98915.13
2023-04-18T02:58:21.030Z,98905.59
2023-04-18T03:01:14.677Z,98905.66
2023-04-18T03:03:42.710Z,98903.41
2023-04-18T03:06:29.478Z,98903.03
2023-04-18T03:08:59.748Z,98909.16
2023-04-18T03:11:30.967Z,98905.09
2023-04-18T03:13:59.468Z,98909.31
2023-04-18T03:16:33.067Z,98908.09
2023-04-18T03:19:02.245Z,98916.44
2023-04-18T03:21:31.433Z,98921.19
2023-04-18T03:24:00.979Z,98915.31
2023-04-18T03:26:29.153Z,98917.56
2023-04-18T03:28:58.292Z,98921.72
2023-04-18T03:31:28.846Z,98919.59
2023-04-18T03:33:57.009Z,98915.25
2023-04-18T03:36:27.286Z,98898.47
2023-04-18T03:38:56.014Z,98917.09
2023-04-18T03:41:26.444Z,98916.84
2023-04-18T03:43:59.039Z,98912.47
2023-04-18T03:46:27.369Z,98914.09
2023-04-18T03:48:57.024Z,98912.72
2023-04-18T03:51:25.162Z,98916.69
2023-04-18T03:53:55.464Z,98918.47
2023-04-18T03:56:26.257Z,98916.25
2023-04-18T03:58:56.612Z,98911.66
2023-04-18T04:01:24.596Z,98917.06
2023-04-18T04:03:54.327Z,98913.00
2023-04-18T04:06:23.204Z,98924.94
2023-04-18T04:08:51.337Z,98922.81
2023-04-18T04:11:24.245Z,98920.69
2023-04-18T04:13:53.781Z,98921.91
2023-04-18T04:16:26.574Z,98918.19
2023-04-18T04:18:56.226Z,98924.56
2023-04-18T04:21:31.256Z,98923.66
2023-04-18T04:23:59.490Z,98920.44
2023-04-18T04:26:32.430Z,98929.69
2023-04-18T04:29:11.059Z,98922.94
2023-04-18T04:31:40.634Z,98927.38
2023-04-18T04:34:08.941Z,98929.94
2023-04-18T04:36:37.360Z,98925.63
2023-04-18T04:39:08.588Z,98929.13
2023-04-18T04:42:01.299Z,98920.81
2023-04-18T04:44:35.594Z,98919.22
2023-04-18T04:47:03.838Z,98919.22
2023-04-18T04:49:35.966Z,98921.03
2023-04-18T04:52:05.292Z,98919.22
2023-04-18T04:54:33.510Z,98928.38
2023-04-18T04:57:02.639Z,98924.22
2023-04-18T04:59:31.448Z,98922.06
2023-04-18T05:02:00.957Z,98930.78
2023-04-18T05:04:29.392Z,98926.50
2023-04-18T05:06:59.764Z,98933.81
2023-04-18T05:09:27.900Z,98929.38
2023-04-18T05:11:55.955Z,98925.22
2023-04-18T05:14:24.018Z,98935.31
2023-04-18T05:16:52.119Z,98936.13
2023-04-18T05:19:21.654Z,98935.94
2023-04-18T05:21:50.128Z,98939.19
2023-04-18T05:24:18.254Z,98931.13
2023-04-18T05:26:46.328Z,98942.16
2023-04-18T05:29:14.383Z,98945.50
2023-04-18T05:31:42.376Z,98944.41
2023-04-18T05:34:10.550Z,98949.13
2023-04-18T05:36:40.206Z,98954.38
2023-04-18T05:39:08.273Z,98952.47
2023-04-18T05:41:36.284Z,98955.09
2023-04-18T05:44:05.709Z,98948.06
2023-04-18T05:46:34.197Z,98949.00
2023-04-18T05:49:02.612Z,98949.00
2023-04-18T05:51:31.282Z,98952.97
2023-04-18T05:54:00.824Z,98949.22
2023-04-18T05:56:28.866Z,98945.84
2023-04-18T05:58:57.185Z,98942.47
2023-04-18T06:01:25.231Z,98948.47
2023-04-18T06:03:53.563Z,98952.72
2023-04-18T06:06:21.750Z,98942.22
2023-04-18T06:08:52.020Z,98949.84
2023-04-18T06:11:21.548Z,98958.22
2023-04-18T06:13:49.603Z,98958.97
2023-04-18T06:16:17.759Z,98971.31
2023-04-18T06:18:45.907Z,98974.00
2023-04-18T06:21:13.907Z,98966.97
2023-04-18T06:23:41.947Z,98977.28
2023-04-18T06:26:10.185Z,98970.81
2023-04-18T06:28:39.586Z,98973.56
2023-04-18T06:31:08.494Z,98960.69
2023-04-18T06:33:37.735Z,98967.22
2023-04-18T06:36:07.156Z,98967.31
2023-04-18T06:38:35.369Z,98952.25
2023-04-18T06:41:03.469Z,98961.78
2023-04-18T06:43:33.608Z,98969.66
2023-04-18T06:46:03.827Z,98968.81
2023-04-18T06:48:32.040Z,98963.25
2023-04-18T06:51:00.090Z,98969.50
2023-04-18T06:53:30.473Z,98974.41
2023-04-18T06:55:58.613Z,98975.91
2023-04-18T06:58:26.688Z,98977.97
2023-04-18T07:00:54.865Z,98976.44
2023-04-18T07:03:24.860Z,98975.63
2023-04-18T07:05:53.155Z,98983.88
2023-04-18T07:08:21.248Z,98980.34
2023-04-18T07:10:49.455Z,98991.75
2023-04-18T07:13:17.641Z,98983.47
2023-04-18T07:15:45.742Z,98980.53
2023-04-18T07:18:20.641Z,99000.28
2023-04-18T07:20:59.897Z,98983.03
2023-04-18T07:23:27.969Z,98995.34
2023-04-18T07:25:56.428Z,98985.88
2023-04-18T07:28:24.512Z,98992.38
2023-04-18T07:30:52.650Z,98987.81
2023-04-18T07:33:20.816Z,98989.66
2023-04-18T07:35:49.898Z,98989.50
2023-04-18T07:38:21.701Z,98990.28
2023-04-18T07:40:56.947Z,98875.97
2023-04-18T07:43:25.039Z,98978.38
2023-04-18T07:45:53.337Z,98987.91
2023-04-18T07:48:22.789Z,98984.63
2023-04-18T07:50:50.969Z,98980.53
2023-04-18T07:53:19.103Z,98987.41
2023-04-18T07:55:48.556Z,98989.34
2023-04-18T07:58:17.225Z,98989.97
2023-04-18T08:00:45.289Z,98990.44
2023-04-18T08:03:13.753Z,98990.56
2023-04-18T08:05:42.996Z,98990.50
2023-04-18T08:08:11.777Z,98995.91
2023-04-18T08:10:40.037Z,98982.88
2023-04-18T08:13:09.677Z,98999.31
2023-04-18T08:15:37.811Z,98988.56
2023-04-18T08:18:05.996Z,98991.19
2023-04-18T08:20:35.213Z,98991.00
2023-04-18T08:23:08.701Z,98991.69
2023-04-18T08:25:38.925Z,98986.69
2023-04-18T08:28:07.021Z,98995.06
2023-04-18T08:30:36.491Z,98992.13
2023-04-18T08:33:04.689Z,98998.78
2023-04-18T08:35:32.873Z,98992.34
2023-04-18T08:38:02.009Z,98984.19
2023-04-18T08:40:30.692Z,98995.22
2023-04-18T08:42:59.098Z,98979.38
2023-04-18T08:45:28.744Z,98987.38
2023-04-18T08:48:01.380Z,98981.59
2023-04-18T08:50:29.437Z,98983.16
2023-04-18T08:53:03.594Z,98990.94
2023-04-18T08:55:33.531Z,98999.13
2023-04-18T08:58:02.092Z,98998.06
2023-04-18T09:00:30.450Z,99005.34
2023-04-18T09:03:00.061Z,99003.28
2023-04-18T09:05:28.559Z,99007.66
2023-04-18T09:07:58.969Z,99012.22
2023-04-18T09:10:28.639Z,99009.59
2023-04-18T09:12:57.688Z,99023.44
2023-04-18T09:15:29.317Z,99016.78
2023-04-18T09:17:58.573Z,99018.91
2023-04-18T09:20:34.432Z,99018.88
2023-04-18T09:23:03.678Z,99016.41
2023-04-18T09:25:34.774Z,99017.03
2023-04-18T09:28:03.471Z,99015.34
2023-04-18T09:30:33.130Z,99013.91
2023-04-18T09:33:05.049Z,99020.94
2023-04-18T09:35:34.688Z,99015.13
2023-04-18T09:38:02.923Z,99025.31
2023-04-18T09:40:31.276Z,99017.00
2023-04-18T09:42:59.304Z,99017.84
2023-04-18T09:45:27.757Z,99017.78
2023-04-18T09:47:56.075Z,99009.16
2023-04-18T09:50:24.176Z,99003.34
2023-04-18T09:52:54.536Z,99009.00
2023-04-18T09:55:22.738Z,99003.91
2023-04-18T09:57:52.980Z,98995.97
2023-04-18T10:00:26.421Z,98994.91
2023-04-18T10:02:58.044Z,98999.69
2023-04-18T10:05:26.815Z,98995.47
2023-04-18T10:07:56.595Z,98998.25
2023-04-18T10:10:25.000Z,98990.53
2023-04-18T10:12:54.514Z,98993.34
2023-04-18T10:15:23.464Z,98991.34
2023-04-18T10:18:04.265Z,98988.88
2023-04-18T10:20:34.785Z,98995.22
2023-04-18T10:23:30.537Z,98996.59
2023-04-18T10:25:58.640Z,98989.28
2023-04-18T10:28:28.162Z,98988.03
2023-04-18T10:31:03.946Z,98980.22
2023-04-18T10:33:34.156Z,98982.59
2023-04-18T10:36:04.028Z,98970.13
2023-04-18T10:38:34.225Z,98975.72
2023-04-18T10:41:15.343Z,98980.94
2023-04-18T10:44:02.109Z,98984.03
2023-04-18T10:46:32.827Z,98980.56
2023-04-18T10:49:13.816Z,98975.19
2023-04-18T10:51:42.093Z,98974.13
2023-04-18T10:54:12.351Z,98970.94
2023-04-18T10:56:40.752Z,98966.63
2023-04-18T10:59:10.764Z,98959.44
2023-04-18T11:01:39.188Z,98966.41
2023-04-18T11:04:12.147Z,98964.34
2023-04-18T11:06:50.448Z,98962.09
2023-04-18T11:09:19.996Z,98961.44
2023-04-18T11:12:03.276Z,98966.41
2023-04-18T11:14:40.046Z,98969.84
2023-04-18T11:17:18.458Z,98967.97
2023-04-18T11:19:49.975Z,98961.84
2023-04-18T11:22:18.599Z,98973.91
2023-04-18T11:24:48.081Z,98973.28
2023-04-18T11:27:16.097Z,98969.22
2023-04-18T11:29:44.169Z,98962.00
2023-04-18T11:32:12.511Z,98959.47
2023-04-18T11:34:40.966Z,98954.41
2023-04-18T11:37:09.090Z,98967.81
2023-04-18T11:39:41.798Z,98958.56
2023-04-18T11:42:11.421Z,98967.28
2023-04-18T11:44:42.652Z,98949.03
2023-04-18T11:47:23.131Z,98968.66
2023-04-18T11:49:57.147Z,98947.59
2023-04-18T11:52:28.505Z,98949.84
2023-04-18T11:54:56.648Z,98954.41
2023-04-18T11:57:26.625Z,98965.88
2023-04-18T11:59:55.680Z,98966.38
2023-04-18T12:02:24.615Z,98956.69
2023-04-18T12:04:56.894Z,98964.72
2023-04-18T12:07:35.969Z,98952.78
2023-04-18T12:10:04.480Z,98959.03
2023-04-18T12:12:33.889Z,98947.22
2023-04-18T12:15:02.525Z,98956.69
2023-04-18T12:17:30.723Z,98957.00
2023-04-18T12:20:02.176Z,98944.03
2023-04-18T12:22:40.560Z,98939.69
2023-04-18T12:25:10.008Z,98943.63
2023-04-18T12:27:59.134Z,98953.25
2023-04-18T12:30:28.155Z,98939.91
2023-04-18T12:32:56.976Z,98940.88
2023-04-18T12:35:25.640Z,98946.81
2023-04-18T12:37:54.319Z,98940.06
2023-04-18T12:40:23.001Z,98946.53
2023-04-18T12:42:54.165Z,98944.66
2023-04-18T12:45:24.067Z,98947.16
2023-04-18T12:47:53.135Z,98935.78
2023-04-18T12:50:21.793Z,98926.47
2023-04-18T12:52:50.028Z,98945.25
2023-04-18T12:55:18.153Z,98937.09
2023-04-18T12:57:46.453Z,98937.25
2023-04-18T13:00:14.885Z,98932.88
2023-04-18T13:02:45.918Z,98938.91
2023-04-18T13:05:15.075Z,98936.97
2023-04-18T13:07:43.339Z,98933.94
2023-04-18T13:10:12.187Z,98934.28
2023-04-18T13:12:40.728Z,98936.63
2023-04-18T13:15:09.377Z,98937.81
2023-04-18T13:17:37.446Z,98919.84
2023-04-18T13:20:09.070Z,98922.00
2023-04-18T13:22:39.805Z,98928.09
2023-04-18T13:25:10.374Z,98921.50
2023-04-18T13:27:41.335Z,98926.66
2023-04-18T13:30:11.153Z,98932.66
2023-04-18T13:32:40.475Z,98929.03
2023-04-18T13:35:10.980Z,98926.13
2023-04-18T13:37:39.482Z,98926.81
2023-04-18T13:40:08.187Z,98924.25
2023-04-18T13:42:37.197Z,98927.28
2023-04-18T13:45:05.560Z,98934.28
2023-04-18T13:47:33.627Z,98941.72
2023-04-18T13:50:01.719Z,98928.84
2023-04-18T13:52:33.384Z,98930.59
2023-04-18T13:55:04.941Z,98933.63
2023-04-18T13:57:33.535Z,98929.03
2023-04-18T14:00:01.615Z,98936.75
2023-04-18T14:02:40.026Z,98935.69
2023-04-18T14:05:08.656Z,98931.56
2023-04-18T14:07:38.716Z,98932.25
2023-04-18T14:10:07.721Z,98930.09
2023-04-18T14:12:35.732Z,98933.28
2023-04-18T14:15:04.821Z,98930.09
2023-04-18T14:17:32.878Z,98936.78
2023-04-18T14:20:01.354Z,98937.34
2023-04-18T14:22:29.690Z,98935.16
2023-04-18T14:24:59.163Z,98942.16
2023-04-18T14:27:27.654Z,98934.72
2023-04-18T14:29:55.748Z,98938.63
2023-04-18T14:32:23.822Z,98918.44
2023-04-18T14:34:54.199Z,98940.63
2023-04-18T14:37:24.428Z,98938.44
2023-04-18T14:39:52.597Z,98940.13
2023-04-18T14:42:21.968Z,98938.84
2023-04-18T14:44:50.064Z,98949.75
2023-04-18T14:47:18.196Z,98938.63
2023-04-18T14:49:46.229Z,98939.56
2023-04-18T14:52:14.303Z,98949.50
2023-04-18T14:54:43.955Z,98910.78
2023-04-18T14:57:12.884Z,98950.47
2023-04-18T14:59:44.813Z,98939.78
2023-04-18T15:02:13.077Z,98940.72
2023-04-18T15:04:43.423Z,98932.19
2023-04-18T15:07:14.988Z,98938.84
2023-04-18T15:09:43.302Z,98931.84
2023-04-18T15:12:11.462Z,98934.47
2023-04-18T15:14:39.689Z,98932.97
2023-04-18T15:17:09.141Z,98939.66
2023-04-18T15:19:37.295Z,98941.94
2023-04-18T15:22:05.335Z,98931.19
2023-04-18T15:24:33.473Z,98941.13
2023-04-18T15:27:01.899Z,98933.19
2023-04-18T15:29:30.299Z,98932.84
2023-04-18T15:31:58.410Z,98935.31
2023-04-18T15:34:27.804Z,98945.84
2023-04-18T15:36:55.830Z,98933.31
2023-04-18T15:39:24.040Z,98929.09
2023-04-18T15:41:53.023Z,98936.75
2023-04-18T15:44:21.099Z,98936.97
2023-04-18T15:46:49.193Z,98934.53
2023-04-18T15:49:19.989Z,98938.28
2023-04-18T15:51:51.560Z,98932.00
2023-04-18T15:54:19.617Z,98932.84
2023-04-18T15:56:50.803Z,98926.00
2023-04-18T15:59:18.917Z,98936.38
2023-04-18T16:01:47.030Z,98942.06
2023-04-18T16:04:15.614Z,98935.91
2023-04-18T16:06:43.825Z,98942.44
2023-04-18T16:09:14.395Z,98941.81
2023-04-18T16:11:45.090Z,98936.16
2023-04-18T16:14:13.504Z,98939.50
2023-04-18T16:16:41.843Z,98937.31
2023-04-18T16:19:09.851Z,98943.72
2023-04-18T16:21:37.855Z,98953.91
2023-04-18T16:24:06.217Z,98952.00
2023-04-18T16:26:36.167Z,98951.63
2023-04-18T16:29:04.196Z,98958.94
2023-04-18T16:31:34.354Z,98960.16
2023-04-18T16:34:04.802Z,98958.84
2023-04-18T16:36:34.174Z,98950.94
2023-04-18T16:39:02.268Z,98955.06
2023-04-18T16:41:32.826Z,98959.78
2023-04-18T16:44:02.215Z,98958.50
2023-04-18T16:46:32.030Z,98949.03
2023-04-18T16:49:01.464Z,98957.56
2023-04-18T16:51:29.768Z,98957.88
2023-04-18T16:53:57.869Z,98953.19
2023-04-18T16:56:26.089Z,98953.44
2023-04-18T16:58:54.132Z,98957.19
2023-04-18T17:01:23.629Z,98958.38
2023-04-18T17:03:51.772Z,98961.56
2023-04-18T17:06:22.599Z,98960.13
2023-04-18T17:08:53.327Z,98968.41
2023-04-18T17:11:21.662Z,98960.03
2023-04-18T17:13:51.151Z,98956.94
2023-04-18T17:16:19.354Z,98967.34
2023-04-18T17:18:48.782Z,98974.69
2023-04-18T17:21:16.890Z,98973.22
2023-04-18T17:23:44.938Z,98969.56
2023-04-18T17:26:13.116Z,98966.47
2023-04-18T17:28:41.252Z,98961.50
2023-04-18T17:31:09.416Z,98958.69
2023-04-18T17:33:39.678Z,98972.81
2023-04-18T17:36:09.290Z,98970.63
2023-04-18T17:38:37.361Z,98967.78
2023-04-18T17:41:05.790Z,98969.91
2023-04-18T17:43:33.837Z,98984.72
2023-04-18T17:46:03.707Z,98971.84
2023-04-18T17:48:31.902Z,98990.06
2023-04-18T17:51:00.031Z,98997.44
2023-04-18T17:53:32.448Z,98992.13
2023-04-18T17:56:00.862Z,98992.13
2023-04-18T17:58:29.026Z,98986.19
2023-04-18T18:00:57.277Z,98995.97
2023-04-18T18:03:25.478Z,99003.22
2023-04-18T18:05:55.012Z,98974.38
2023-04-18T18:08:23.231Z,99004.94
2023-04-18T18:10:52.767Z,99002.69
2023-04-18T18:13:20.799Z,99008.31
2023-04-18T18:15:48.908Z,99012.06
2023-04-18T18:18:29.679Z,99019.97
2023-04-18T18:20:58.254Z,99009.75
2023-04-18T18:23:26.422Z,99021.31
2023-04-18T18:25:55.934Z,99019.91
2023-04-18T18:28:24.012Z,99024.31
2023-04-18T18:30:52.194Z,99024.94
2023-04-18T18:33:20.475Z,99028.56
2023-04-18T18:35:49.015Z,99034.06
2023-04-18T18:38:17.168Z,99040.09
2023-04-18T18:40:47.524Z,99035.31
2023-04-18T18:43:17.080Z,99041.56
2023-04-18T18:45:45.172Z,99050.78
2023-04-18T18:48:14.655Z,99053.06
2023-04-18T18:50:42.764Z,99049.69
2023-04-18T18:53:10.902Z,99062.78
2023-04-18T18:55:39.026Z,99058.84
2023-04-18T18:58:07.922Z,99059.41
2023-04-18T19:00:39.454Z,99065.47
2023-04-18T19:03:08.382Z,99067.53
2023-04-18T19:05:38.006Z,99062.94
2023-04-18T19:08:06.597Z,99067.75
2023-04-18T19:10:37.037Z,99069.53
2023-04-18T19:13:05.129Z,99079.09
2023-04-18T19:15:33.272Z,99075.59
2023-04-18T19:18:02.765Z,99084.00
2023-04-18T19:20:30.942Z,99081.63
2023-04-18T19:22:59.030Z,99074.56
2023-04-18T19:25:27.242Z,99083.72
2023-04-18T19:27:55.255Z,99087.13
2023-04-18T19:30:23.349Z,99061.84
2023-04-18T19:32:51.614Z,99075.41
2023-04-18T19:35:21.216Z,99088.78
2023-04-18T19:37:49.323Z,99082.53
2023-04-18T19:40:17.475Z,99104.84
2023-04-18T19:42:46.144Z,99095.66
2023-04-18T19:45:15.167Z,99077.34
2023-04-18T19:47:44.337Z,99083.00
2023-04-18T19:50:12.565Z,99085.28
2023-04-18T19:52:44.299Z,99084.31
2023-04-18T19:55:12.419Z,99088.41
2023-04-18T19:57:41.406Z,99086.53
2023-04-18T20:00:10.646Z,99089.91
2023-04-18T20:02:43.516Z,99096.59
2023-04-18T20:05:12.918Z,99091.78
2023-04-18T20:07:41.597Z,99097.00
2023-04-18T20:10:11.761Z,99091.75
2023-04-18T20:12:39.846Z,99089.47
2023-04-18T20:15:08.612Z,99095.94
2023-04-18T20:17:36.748Z,99098.47
2023-04-18T20:20:08.228Z,99092.44
2023-04-18T20:22:37.548Z,99070.03
2023-04-18T20:25:06.668Z,99089.31
2023-04-18T20:27:36.085Z,99096.38
2023-04-18T20:30:04.615Z,99099.31
2023-04-18T20:32:33.428Z,99097.66
2023-04-18T20:35:02.748Z,99103.72
2023-04-18T20:37:30.973Z,99101.59
2023-04-18T20:39:59.454Z,99098.28
2023-04-18T20:42:27.490Z,99102.69
2023-04-18T20:44:58.807Z,99111.22
2023-04-18T20:47:27.144Z,99107.28
2023-04-18T20:49:56.476Z,99109.34
2023-04-18T20:52:24.492Z,99087.38
2023-04-18T20:54:52.563Z,99115.22
2023-04-18T20:57:20.724Z,99107.91
2023-04-18T20:59:50.836Z,99121.03
2023-04-18T21:02:20.416Z,99113.97
2023-04-18T21:04:48.599Z,99112.53
2023-04-18T21:07:16.799Z,99119.75
2023-04-18T21:09:44.865Z,99116.88
2023-04-18T21:12:12.915Z,99121.66
2023-04-18T21:14:41.015Z,99116.06
2023-04-18T21:17:10.500Z,99121.03
2023-04-18T21:19:39.928Z,99126.88
2023-04-18T21:22:07.949Z,99117.50
2023-04-18T21:24:36.017Z,99123.53
2023-04-18T21:27:04.102Z,99123.34
2023-04-18T21:29:32.151Z,99120.00
2023-04-18T21:32:02.609Z,99113.16
2023-04-18T21:34:30.680Z,99119.84
2023-04-18T21:37:00.524Z,99117.94
2023-04-18T21:39:31.060Z,99112.78
2023-04-18T21:41:59.267Z,99113.19
2023-04-18T21:44:27.274Z,99114.22
2023-04-18T21:46:55.449Z,99114.84
2023-04-18T21:49:23.538Z,99120.66
2023-04-18T21:51:51.576Z,99116.50
2023-04-18T21:54:23.576Z,99122.94
2023-04-18T21:56:51.704Z,99115.88
2023-04-18T22:02:38.857Z,99119.00
2023-04-18T22:05:08.798Z,99115.47
2023-04-18T22:07:46.665Z,99112.75
2023-04-18T22:10:25.666Z,99107.56
2023-04-18T22:12:54.418Z,99094.88
2023-04-18T22:15:22.567Z,99116.28
2023-04-18T22:17:54.517Z,99116.09
2023-04-18T22:20:22.805Z,99109.66
2023-04-18T22:22:50.867Z,99108.59
2023-04-18T22:25:18.994Z,99105.91
2023-04-18T22:27:47.105Z,99097.81
2023-04-18T22:30:15.418Z,99103.59
2023-04-18T22:32:43.557Z,99104.25
2023-04-18T22:35:12.994Z,99108.59
2023-04-18T22:37:41.047Z,99107.34
2023-04-18T22:40:09.727Z,99106.09
2023-04-18T22:42:38.812Z,99111.50
2023-04-18T22:45:07.887Z,99109.84
2023-04-18T22:47:36.074Z,99105.06
2023-04-18T22:50:04.280Z,99109.84
2023-04-18T22:52:33.611Z,99116.47
2023-04-18T22:55:02.533Z,99103.81
2023-04-18T22:57:30.896Z,99109.44
2023-04-18T22:59:58.860Z,99105.09
2023-04-18T23:02:29.196Z,99110.25
2023-04-18T23:04:58.378Z,99105.47
2023-04-18T23:07:26.573Z,99106.94
2023-04-18T23:09:58.156Z,99105.50
2023-04-18T23:12:26.730Z,99109.22
2023-04-18T23:14:54.752Z,99111.94
2023-04-18T23:17:22.804Z,99116.69
2023-04-18T23:19:53.086Z,99112.53
2023-04-18T23:22:21.358Z,99109.00
2023-04-18T23:24:49.472Z,99110.06
2023-04-18T23:27:19.368Z,99113.78
2023-04-18T23:29:48.520Z,99118.34
2023-04-18T23:32:16.561Z,99126.06
2023-04-18T23:34:46.023Z,99130.59
2023-04-18T23:37:14.530Z,99130.59
2023-04-18T23:39:42.567Z,99126.84
2023-04-18T23:42:10.598Z,99119.59
2023-04-18T23:44:40.041Z,99127.69
2023-04-18T23:47:08.109Z,99122.69
2023-04-18T23:49:36.156Z,99129.34
2023-04-18T23:52:04.292Z,99123.53
2023-04-18T23:54:32.258Z,99126.88
2023-04-18T23:57:01.532Z,99130.97
2023-04-18T23:59:31.849Z,99124.34
